Sant Pere de Ribes, Spain
Current Conditions -  °F | °C
As of 7:00 PM on Thursday 23 Oct 2014 (Local Time) from LEBL Reporting Station
Clear Clear  
Wind Chill: 70°   Ceiling: Unl
Heat Index: 70°   Visibility: 6mi
Dew Point: 57°   Wind: 8mph
Humidity: 64%   Direction: 220°SW
Pressure: 30"   Gusts: NA
Location:  41.27°N, 1.77°E
Report Text: LEBL 231700Z 22007KT CAVOK 21/14 Q1016 NOSIG
Loading
Personal Weather Stations






























Interactive Weather Map
Tropical Storm Tracking
New forecast layout! Learn more

10-Day Weather Forecast

Advertisements
Track Severe Weather on mobile